sensor_id;sensor_type;location;lat;lon;timestamp;P1;durP1;ratioP1;P2;durP2;ratioP2
25049;SDS011;13046;49.814;9.918;2023-04-25T00:01:22;10.15;;;9.15;;
25049;SDS011;13046;49.814;9.918;2023-04-25T00:03:49;8.85;;;7.95;;
25049;SDS011;13046;49.814;9.918;2023-04-25T00:06:15;8.85;;;7.97;;
25049;SDS011;13046;49.814;9.918;2023-04-25T00:08:43;8.77;;;7.93;;
25049;SDS011;13046;49.814;9.918;2023-04-25T00:11:09;9.48;;;8.50;;
25049;SDS011;13046;49.814;9.918;2023-04-25T00:13:35;10.50;;;8.75;;
25049;SDS011;13046;49.814;9.918;2023-04-25T00:16:01;10.43;;;9.38;;
25049;SDS011;13046;49.814;9.918;2023-04-25T00:18:27;17.63;;;9.25;;
25049;SDS011;13046;49.814;9.918;2023-04-25T00:20:54;10.18;;;9.00;;
25049;SDS011;13046;49.814;9.918;2023-04-25T00:23:20;13.00;;;9.52;;
25049;SDS011;13046;49.814;9.918;2023-04-25T00:25:47;9.45;;;8.50;;
25049;SDS011;13046;49.814;9.918;2023-04-25T00:28:13;11.23;;;9.13;;
25049;SDS011;13046;49.814;9.918;2023-04-25T00:30:40;9.98;;;8.98;;
25049;SDS011;13046;49.814;9.918;2023-04-25T00:33:06;10.82;;;9.55;;
25049;SDS011;13046;49.814;9.918;2023-04-25T00:35:33;15.45;;;10.52;;
25049;SDS011;13046;49.814;9.918;2023-04-25T00:37:59;11.77;;;9.05;;
25049;SDS011;13046;49.814;9.918;2023-04-25T00:40:25;10.27;;;9.18;;
25049;SDS011;13046;49.814;9.918;2023-04-25T00:42:51;10.68;;;9.63;;
25049;SDS011;13046;49.814;9.918;2023-04-25T00:45:18;13.57;;;9.15;;
25049;SDS011;13046;49.814;9.918;2023-04-25T00:47:44;12.30;;;9.98;;
25049;SDS011;13046;49.814;9.918;2023-04-25T00:50:10;11.32;;;9.43;;
25049;SDS011;13046;49.814;9.918;2023-04-25T00:52:37;11.60;;;9.55;;
25049;SDS011;13046;49.814;9.918;2023-04-25T00:55:04;9.70;;;8.70;;
25049;SDS011;13046;49.814;9.918;2023-04-25T00:57:30;11.95;;;8.88;;
25049;SDS011;13046;49.814;9.918;2023-04-25T00:59:57;10.85;;;9.63;;
25049;SDS011;13046;49.814;9.918;2023-04-25T01:02:23;11.43;;;10.02;;
25049;SDS011;13046;49.814;9.918;2023-04-25T01:04:50;11.70;;;10.52;;
25049;SDS011;13046;49.814;9.918;2023-04-25T01:07:17;10.65;;;9.18;;
25049;SDS011;13046;49.814;9.918;2023-04-25T01:09:43;11.90;;;9.20;;
25049;SDS011;13046;49.814;9.918;2023-04-25T01:12:09;10.00;;;9.00;;
25049;SDS011;13046;49.814;9.918;2023-04-25T01:14:35;9.07;;;8.10;;
25049;SDS011;13046;49.814;9.918;2023-04-25T01:17:01;10.32;;;9.25;;
25049;SDS011;13046;49.814;9.918;2023-04-25T01:19:27;8.18;;;7.40;;
25049;SDS011;13046;49.814;9.918;2023-04-25T01:21:54;8.95;;;7.53;;
25049;SDS011;13046;49.814;9.918;2023-04-25T01:24:20;8.45;;;7.65;;
25049;SDS011;13046;49.814;9.918;2023-04-25T01:26:46;8.88;;;7.95;;
25049;SDS011;13046;49.814;9.918;2023-04-25T01:29:20;9.27;;;7.55;;
25049;SDS011;13046;49.814;9.918;2023-04-25T01:31:46;9.85;;;8.45;;
25049;SDS011;13046;49.814;9.918;2023-04-25T01:34:13;8.57;;;7.45;;
25049;SDS011;13046;49.814;9.918;2023-04-25T01:36:39;9.95;;;8.32;;
25049;SDS011;13046;49.814;9.918;2023-04-25T01:39:05;7.30;;;6.57;;
25049;SDS011;13046;49.814;9.918;2023-04-25T01:41:32;6.57;;;5.97;;
25049;SDS011;13046;49.814;9.918;2023-04-25T01:43:59;6.93;;;6.32;;
25049;SDS011;13046;49.814;9.918;2023-04-25T01:46:26;6.57;;;5.90;;
25049;SDS011;13046;49.814;9.918;2023-04-25T01:48:52;6.30;;;5.70;;
25049;SDS011;13046;49.814;9.918;2023-04-25T01:51:18;6.25;;;5.65;;
25049;SDS011;13046;49.814;9.918;2023-04-25T01:53:45;6.25;;;5.65;;
25049;SDS011;13046;49.814;9.918;2023-04-25T01:56:11;6.20;;;5.60;;
25049;SDS011;13046;49.814;9.918;2023-04-25T01:58:38;6.53;;;5.90;;
25049;SDS011;13046;49.814;9.918;2023-04-25T02:01:10;6.05;;;5.55;;
25049;SDS011;13046;49.814;9.918;2023-04-25T02:03:43;6.13;;;5.53;;
25049;SDS011;13046;49.814;9.918;2023-04-25T02:06:17;6.18;;;5.57;;
25049;SDS011;13046;49.814;9.918;2023-04-25T02:08:45;6.68;;;6.07;;
25049;SDS011;13046;49.814;9.918;2023-04-25T02:11:12;7.13;;;6.00;;
25049;SDS011;13046;49.814;9.918;2023-04-25T02:13:44;7.70;;;6.95;;
25049;SDS011;13046;49.814;9.918;2023-04-25T02:16:29;6.85;;;5.90;;
25049;SDS011;13046;49.814;9.918;2023-04-25T02:18:55;7.03;;;5.95;;
25049;SDS011;13046;49.814;9.918;2023-04-25T02:21:21;7.70;;;6.03;;
25049;SDS011;13046;49.814;9.918;2023-04-25T02:23:47;7.07;;;6.25;;
25049;SDS011;13046;49.814;9.918;2023-04-25T02:26:14;6.57;;;5.43;;
25049;SDS011;13046;49.814;9.918;2023-04-25T02:28:40;8.05;;;7.20;;
25049;SDS011;13046;49.814;9.918;2023-04-25T02:31:06;6.57;;;5.90;;
25049;SDS011;13046;49.814;9.918;2023-04-25T02:33:32;6.60;;;5.18;;
25049;SDS011;13046;49.814;9.918;2023-04-25T02:35:59;6.55;;;5.82;;
25049;SDS011;13046;49.814;9.918;2023-04-25T02:38:25;6.10;;;5.55;;
25049;SDS011;13046;49.814;9.918;2023-04-25T02:40:51;5.40;;;4.20;;
25049;SDS011;13046;49.814;9.918;2023-04-25T02:43:17;5.90;;;5.13;;
25049;SDS011;13046;49.814;9.918;2023-04-25T02:45:43;5.47;;;4.97;;
25049;SDS011;13046;49.814;9.918;2023-04-25T02:48:10;5.70;;;4.60;;
25049;SDS011;13046;49.814;9.918;2023-04-25T02:50:36;6.43;;;5.30;;
25049;SDS011;13046;49.814;9.918;2023-04-25T02:53:03;5.22;;;4.72;;
25049;SDS011;13046;49.814;9.918;2023-04-25T02:55:35;5.78;;;4.57;;
25049;SDS011;13046;49.814;9.918;2023-04-25T02:58:02;6.47;;;5.85;;
25049;SDS011;13046;49.814;9.918;2023-04-25T03:00:39;4.65;;;4.28;;
25049;SDS011;13046;49.814;9.918;2023-04-25T03:03:05;4.70;;;4.30;;
25049;SDS011;13046;49.814;9.918;2023-04-25T03:05:32;5.57;;;5.07;;
25049;SDS011;13046;49.814;9.918;2023-04-25T03:07:58;5.82;;;4.53;;
25049;SDS011;13046;49.814;9.918;2023-04-25T03:10:25;4.72;;;4.30;;
25049;SDS011;13046;49.814;9.918;2023-04-25T03:12:52;4.95;;;3.83;;
25049;SDS011;13046;49.814;9.918;2023-04-25T03:15:18;5.88;;;4.45;;
25049;SDS011;13046;49.814;9.918;2023-04-25T03:17:44;5.70;;;3.88;;
25049;SDS011;13046;49.814;9.918;2023-04-25T03:20:11;6.03;;;4.43;;
25049;SDS011;13046;49.814;9.918;2023-04-25T03:22:37;4.20;;;3.80;;
25049;SDS011;13046;49.814;9.918;2023-04-25T03:25:03;4.65;;;4.25;;
25049;SDS011;13046;49.814;9.918;2023-04-25T03:27:29;4.38;;;3.97;;
25049;SDS011;13046;49.814;9.918;2023-04-25T03:29:56;5.63;;;4.40;;
25049;SDS011;13046;49.814;9.918;2023-04-25T03:32:23;4.57;;;3.95;;
25049;SDS011;13046;49.814;9.918;2023-04-25T03:34:49;6.40;;;4.50;;
25049;SDS011;13046;49.814;9.918;2023-04-25T03:37:15;5.70;;;4.35;;
25049;SDS011;13046;49.814;9.918;2023-04-25T03:39:41;4.97;;;4.47;;
25049;SDS011;13046;49.814;9.918;2023-04-25T03:42:07;4.95;;;4.47;;
25049;SDS011;13046;49.814;9.918;2023-04-25T03:44:33;5.72;;;4.63;;
25049;SDS011;13046;49.814;9.918;2023-04-25T03:47:00;5.95;;;5.35;;
25049;SDS011;13046;49.814;9.918;2023-04-25T03:49:26;5.00;;;4.38;;
25049;SDS011;13046;49.814;9.918;2023-04-25T03:51:56;6.65;;;5.90;;
25049;SDS011;13046;49.814;9.918;2023-04-25T03:54:23;9.68;;;6.47;;
25049;SDS011;13046;49.814;9.918;2023-04-25T03:57:16;5.70;;;5.20;;
25049;SDS011;13046;49.814;9.918;2023-04-25T03:59:42;7.25;;;6.38;;
25049;SDS011;13046;49.814;9.918;2023-04-25T04:02:11;7.22;;;6.20;;
25049;SDS011;13046;49.814;9.918;2023-04-25T04:04:38;7.70;;;6.40;;
25049;SDS011;13046;49.814;9.918;2023-04-25T04:07:05;8.90;;;7.30;;
25049;SDS011;13046;49.814;9.918;2023-04-25T04:09:34;11.82;;;6.90;;
25049;SDS011;13046;49.814;9.918;2023-04-25T04:12:05;10.18;;;7.85;;
25049;SDS011;13046;49.814;9.918;2023-04-25T04:14:32;9.27;;;7.40;;
25049;SDS011;13046;49.814;9.918;2023-04-25T04:16:58;9.48;;;7.45;;
25049;SDS011;13046;49.814;9.918;2023-04-25T04:19:25;8.10;;;7.22;;
25049;SDS011;13046;49.814;9.918;2023-04-25T04:22:01;10.32;;;8.32;;
25049;SDS011;13046;49.814;9.918;2023-04-25T04:24:27;10.13;;;6.65;;
25049;SDS011;13046;49.814;9.918;2023-04-25T04:27:00;10.93;;;8.30;;
25049;SDS011;13046;49.814;9.918;2023-04-25T04:29:35;9.57;;;8.48;;
25049;SDS011;13046;49.814;9.918;2023-04-25T04:32:14;9.23;;;8.23;;
25049;SDS011;13046;49.814;9.918;2023-04-25T04:34:41;9.45;;;8.32;;
25049;SDS011;13046;49.814;9.918;2023-04-25T04:37:07;9.30;;;8.30;;
25049;SDS011;13046;49.814;9.918;2023-04-25T04:39:35;15.15;;;8.18;;
25049;SDS011;13046;49.814;9.918;2023-04-25T04:42:07;11.18;;;9.98;;
25049;SDS011;13046;49.814;9.918;2023-04-25T04:44:42;11.32;;;9.45;;
25049;SDS011;13046;49.814;9.918;2023-04-25T04:47:23;11.45;;;9.40;;
25049;SDS011;13046;49.814;9.918;2023-04-25T04:50:10;14.18;;;9.48;;
25049;SDS011;13046;49.814;9.918;2023-04-25T04:52:51;10.15;;;8.75;;
25049;SDS011;13046;49.814;9.918;2023-04-25T04:55:36;9.52;;;8.52;;
25049;SDS011;13046;49.814;9.918;2023-04-25T04:58:08;10.88;;;9.13;;
25049;SDS011;13046;49.814;9.918;2023-04-25T05:01:00;9.60;;;8.60;;
25049;SDS011;13046;49.814;9.918;2023-04-25T05:03:45;9.80;;;8.25;;
25049;SDS011;13046;49.814;9.918;2023-04-25T05:06:30;10.60;;;9.32;;
25049;SDS011;13046;49.814;9.918;2023-04-25T05:09:28;12.10;;;10.07;;
25049;SDS011;13046;49.814;9.918;2023-04-25T05:12:18;13.60;;;10.65;;
25049;SDS011;13046;49.814;9.918;2023-04-25T05:14:57;12.30;;;10.10;;
25049;SDS011;13046;49.814;9.918;2023-04-25T05:17:35;10.70;;;9.60;;
25049;SDS011;13046;49.814;9.918;2023-04-25T05:20:21;11.90;;;9.43;;
25049;SDS011;13046;49.814;9.918;2023-04-25T05:23:03;15.85;;;10.80;;
25049;SDS011;13046;49.814;9.918;2023-04-25T05:25:45;16.67;;;12.23;;
25049;SDS011;13046;49.814;9.918;2023-04-25T05:28:49;15.00;;;12.82;;
25049;SDS011;13046;49.814;9.918;2023-04-25T05:31:36;14.90;;;12.07;;
25049;SDS011;13046;49.814;9.918;2023-04-25T05:34:15;14.35;;;11.57;;
25049;SDS011;13046;49.814;9.918;2023-04-25T05:36:55;15.93;;;12.05;;
25049;SDS011;13046;49.814;9.918;2023-04-25T05:39:21;15.35;;;11.60;;
25049;SDS011;13046;49.814;9.918;2023-04-25T05:42:09;14.30;;;12.02;;
25049;SDS011;13046;49.814;9.918;2023-04-25T05:44:54;13.52;;;12.07;;
25049;SDS011;13046;49.814;9.918;2023-04-25T05:47:25;13.57;;;11.63;;
25049;SDS011;13046;49.814;9.918;2023-04-25T05:50:13;13.70;;;11.90;;
25049;SDS011;13046;49.814;9.918;2023-04-25T05:52:47;15.82;;;12.82;;
25049;SDS011;13046;49.814;9.918;2023-04-25T05:55:31;17.40;;;12.52;;
25049;SDS011;13046;49.814;9.918;2023-04-25T05:57:59;16.83;;;11.75;;
25049;SDS011;13046;49.814;9.918;2023-04-25T06:00:25;17.25;;;12.20;;
25049;SDS011;13046;49.814;9.918;2023-04-25T06:02:51;17.52;;;12.32;;
25049;SDS011;13046;49.814;9.918;2023-04-25T06:05:18;18.15;;;13.45;;
25049;SDS011;13046;49.814;9.918;2023-04-25T06:07:45;15.10;;;12.10;;
25049;SDS011;13046;49.814;9.918;2023-04-25T06:10:11;15.70;;;12.52;;
25049;SDS011;13046;49.814;9.918;2023-04-25T06:12:37;16.50;;;12.60;;
25049;SDS011;13046;49.814;9.918;2023-04-25T06:15:04;16.90;;;13.68;;
25049;SDS011;13046;49.814;9.918;2023-04-25T06:17:30;17.40;;;12.68;;
25049;SDS011;13046;49.814;9.918;2023-04-25T06:19:57;14.93;;;11.73;;
25049;SDS011;13046;49.814;9.918;2023-04-25T06:22:23;13.80;;;11.40;;
25049;SDS011;13046;49.814;9.918;2023-04-25T06:24:49;16.35;;;11.32;;
25049;SDS011;13046;49.814;9.918;2023-04-25T06:27:15;15.48;;;13.25;;
25049;SDS011;13046;49.814;9.918;2023-04-25T06:29:41;13.98;;;12.57;;
25049;SDS011;13046;49.814;9.918;2023-04-25T06:32:07;18.02;;;12.98;;
25049;SDS011;13046;49.814;9.918;2023-04-25T06:34:34;12.43;;;10.80;;
25049;SDS011;13046;49.814;9.918;2023-04-25T06:37:00;13.15;;;11.88;;
25049;SDS011;13046;49.814;9.918;2023-04-25T06:39:27;15.32;;;11.95;;
25049;SDS011;13046;49.814;9.918;2023-04-25T06:41:54;15.50;;;11.55;;
25049;SDS011;13046;49.814;9.918;2023-04-25T06:44:39;11.02;;;9.75;;
25049;SDS011;13046;49.814;9.918;2023-04-25T06:47:07;16.48;;;10.52;;
25049;SDS011;13046;49.814;9.918;2023-04-25T06:49:33;13.52;;;11.15;;
25049;SDS011;13046;49.814;9.918;2023-04-25T06:51:59;13.48;;;12.05;;
25049;SDS011;13046;49.814;9.918;2023-04-25T06:54:26;14.50;;;10.38;;
25049;SDS011;13046;49.814;9.918;2023-04-25T06:57:01;13.43;;;10.82;;
25049;SDS011;13046;49.814;9.918;2023-04-25T06:59:27;14.85;;;10.02;;
25049;SDS011;13046;49.814;9.918;2023-04-25T07:01:53;12.90;;;10.65;;
25049;SDS011;13046;49.814;9.918;2023-04-25T07:04:24;12.32;;;11.02;;
25049;SDS011;13046;49.814;9.918;2023-04-25T07:06:54;12.80;;;9.82;;
25049;SDS011;13046;49.814;9.918;2023-04-25T07:09:27;14.25;;;9.38;;
25049;SDS011;13046;49.814;9.918;2023-04-25T07:11:54;15.80;;;9.05;;
25049;SDS011;13046;49.814;9.918;2023-04-25T07:14:19;10.80;;;8.38;;
25049;SDS011;13046;49.814;9.918;2023-04-25T07:16:45;11.88;;;9.35;;
25049;SDS011;13046;49.814;9.918;2023-04-25T07:19:11;10.88;;;9.00;;
25049;SDS011;13046;49.814;9.918;2023-04-25T07:21:37;12.18;;;9.55;;
25049;SDS011;13046;49.814;9.918;2023-04-25T07:24:04;9.95;;;8.85;;
25049;SDS011;13046;49.814;9.918;2023-04-25T07:26:34;13.15;;;10.13;;
25049;SDS011;13046;49.814;9.918;2023-04-25T07:29:16;15.00;;;10.32;;
25049;SDS011;13046;49.814;9.918;2023-04-25T07:31:42;13.98;;;10.80;;
25049;SDS011;13046;49.814;9.918;2023-04-25T07:34:08;15.57;;;9.93;;
25049;SDS011;13046;49.814;9.918;2023-04-25T07:36:37;19.95;;;12.35;;
25049;SDS011;13046;49.814;9.918;2023-04-25T07:39:02;14.13;;;9.75;;
25049;SDS011;13046;49.814;9.918;2023-04-25T07:41:28;9.23;;;7.32;;
25049;SDS011;13046;49.814;9.918;2023-04-25T07:43:54;7.45;;;6.65;;
25049;SDS011;13046;49.814;9.918;2023-04-25T07:46:20;11.00;;;6.43;;
25049;SDS011;13046;49.814;9.918;2023-04-25T07:48:46;7.05;;;5.68;;
25049;SDS011;13046;49.814;9.918;2023-04-25T07:51:13;8.60;;;6.50;;
25049;SDS011;13046;49.814;9.918;2023-04-25T07:53:39;7.78;;;5.85;;
25049;SDS011;13046;49.814;9.918;2023-04-25T07:56:10;6.75;;;4.78;;
25049;SDS011;13046;49.814;9.918;2023-04-25T07:58:38;7.88;;;6.10;;
25049;SDS011;13046;49.814;9.918;2023-04-25T08:01:08;6.47;;;4.10;;
25049;SDS011;13046;49.814;9.918;2023-04-25T08:03:33;7.25;;;4.45;;
25049;SDS011;13046;49.814;9.918;2023-04-25T08:06:01;5.97;;;4.20;;
25049;SDS011;13046;49.814;9.918;2023-04-25T08:08:30;5.47;;;4.15;;
25049;SDS011;13046;49.814;9.918;2023-04-25T08:10:56;9.43;;;5.28;;
25049;SDS011;13046;49.814;9.918;2023-04-25T08:13:21;8.50;;;4.53;;
25049;SDS011;13046;49.814;9.918;2023-04-25T08:15:47;4.40;;;3.47;;
25049;SDS011;13046;49.814;9.918;2023-04-25T08:18:13;6.07;;;4.18;;
25049;SDS011;13046;49.814;9.918;2023-04-25T08:20:38;5.93;;;4.03;;
25049;SDS011;13046;49.814;9.918;2023-04-25T08:23:06;5.05;;;3.58;;
25049;SDS011;13046;49.814;9.918;2023-04-25T08:25:41;4.85;;;4.00;;
25049;SDS011;13046;49.814;9.918;2023-04-25T08:28:10;6.38;;;3.45;;
25049;SDS011;13046;49.814;9.918;2023-04-25T08:30:36;5.45;;;3.97;;
25049;SDS011;13046;49.814;9.918;2023-04-25T08:33:03;5.20;;;4.07;;
25049;SDS011;13046;49.814;9.918;2023-04-25T08:35:44;3.80;;;3.42;;
25049;SDS011;13046;49.814;9.918;2023-04-25T08:38:11;7.68;;;4.43;;
25049;SDS011;13046;49.814;9.918;2023-04-25T08:40:37;4.70;;;3.67;;
25049;SDS011;13046;49.814;9.918;2023-04-25T08:43:08;5.68;;;4.00;;
25049;SDS011;13046;49.814;9.918;2023-04-25T08:45:41;4.30;;;3.90;;
25049;SDS011;13046;49.814;9.918;2023-04-25T08:48:10;5.82;;;3.40;;
25049;SDS011;13046;49.814;9.918;2023-04-25T08:50:50;6.97;;;3.70;;
25049;SDS011;13046;49.814;9.918;2023-04-25T08:53:28;5.28;;;3.85;;
25049;SDS011;13046;49.814;9.918;2023-04-25T08:55:58;4.85;;;3.50;;
25049;SDS011;13046;49.814;9.918;2023-04-25T08:58:24;5.25;;;3.97;;
25049;SDS011;13046;49.814;9.918;2023-04-25T09:00:51;5.05;;;3.65;;
25049;SDS011;13046;49.814;9.918;2023-04-25T09:03:19;4.95;;;3.33;;
25049;SDS011;13046;49.814;9.918;2023-04-25T09:05:46;3.90;;;3.50;;
25049;SDS011;13046;49.814;9.918;2023-04-25T09:08:14;5.35;;;3.95;;
25049;SDS011;13046;49.814;9.918;2023-04-25T09:10:41;5.82;;;3.50;;
25049;SDS011;13046;49.814;9.918;2023-04-25T09:13:08;6.40;;;3.58;;
25049;SDS011;13046;49.814;9.918;2023-04-25T09:15:56;4.88;;;3.28;;
25049;SDS011;13046;49.814;9.918;2023-04-25T09:18:46;4.40;;;3.10;;
25049;SDS011;13046;49.814;9.918;2023-04-25T09:21:13;4.53;;;4.10;;
25049;SDS011;13046;49.814;9.918;2023-04-25T09:23:40;5.95;;;3.88;;
25049;SDS011;13046;49.814;9.918;2023-04-25T09:26:10;3.30;;;3.00;;
25049;SDS011;13046;49.814;9.918;2023-04-25T09:28:39;3.10;;;2.88;;
25049;SDS011;13046;49.814;9.918;2023-04-25T09:31:05;4.30;;;3.30;;
25049;SDS011;13046;49.814;9.918;2023-04-25T09:33:35;4.65;;;3.15;;
25049;SDS011;13046;49.814;9.918;2023-04-25T09:36:03;6.13;;;4.00;;
25049;SDS011;13046;49.814;9.918;2023-04-25T09:38:43;3.03;;;2.83;;
25049;SDS011;13046;49.814;9.918;2023-04-25T09:41:22;8.25;;;4.07;;
25049;SDS011;13046;49.814;9.918;2023-04-25T09:43:49;5.30;;;2.90;;
25049;SDS011;13046;49.814;9.918;2023-04-25T09:46:15;4.68;;;3.40;;
25049;SDS011;13046;49.814;9.918;2023-04-25T09:48:49;7.70;;;4.60;;
25049;SDS011;13046;49.814;9.918;2023-04-25T09:51:17;4.38;;;3.17;;
25049;SDS011;13046;49.814;9.918;2023-04-25T09:53:45;6.72;;;4.20;;
25049;SDS011;13046;49.814;9.918;2023-04-25T09:56:37;4.53;;;3.63;;
25049;SDS011;13046;49.814;9.918;2023-04-25T09:59:05;6.57;;;3.28;;
25049;SDS011;13046;49.814;9.918;2023-04-25T10:01:34;5.75;;;4.25;;
25049;SDS011;13046;49.814;9.918;2023-04-25T10:04:10;4.97;;;3.40;;
25049;SDS011;13046;49.814;9.918;2023-04-25T10:06:50;6.70;;;3.83;;
25049;SDS011;13046;49.814;9.918;2023-04-25T10:09:18;3.17;;;2.92;;
25049;SDS011;13046;49.814;9.918;2023-04-25T10:11:46;8.52;;;3.60;;
25049;SDS011;13046;49.814;9.918;2023-04-25T10:14:15;4.40;;;3.60;;
25049;SDS011;13046;49.814;9.918;2023-04-25T10:16:42;7.50;;;4.18;;
25049;SDS011;13046;49.814;9.918;2023-04-25T10:19:09;4.45;;;3.92;;
25049;SDS011;13046;49.814;9.918;2023-04-25T10:21:35;3.67;;;3.25;;
25049;SDS011;13046;49.814;9.918;2023-04-25T10:24:06;6.85;;;3.92;;
25049;SDS011;13046;49.814;9.918;2023-04-25T10:26:33;5.75;;;4.20;;
25049;SDS011;13046;49.814;9.918;2023-04-25T10:28:59;7.22;;;4.40;;
25049;SDS011;13046;49.814;9.918;2023-04-25T10:31:26;7.22;;;3.95;;
25049;SDS011;13046;49.814;9.918;2023-04-25T10:33:54;7.57;;;4.30;;
25049;SDS011;13046;49.814;9.918;2023-04-25T10:36:23;5.20;;;3.92;;
25049;SDS011;13046;49.814;9.918;2023-04-25T10:38:52;4.28;;;3.78;;
25049;SDS011;13046;49.814;9.918;2023-04-25T10:41:19;6.63;;;3.67;;
25049;SDS011;13046;49.814;9.918;2023-04-25T10:43:48;7.10;;;3.70;;
25049;SDS011;13046;49.814;9.918;2023-04-25T10:46:29;4.13;;;3.63;;
25049;SDS011;13046;49.814;9.918;2023-04-25T10:49:00;3.75;;;3.33;;
25049;SDS011;13046;49.814;9.918;2023-04-25T10:51:28;4.03;;;3.30;;
25049;SDS011;13046;49.814;9.918;2023-04-25T10:54:04;6.07;;;3.75;;
25049;SDS011;13046;49.814;9.918;2023-04-25T10:59:04;3.97;;;3.25;;
25049;SDS011;13046;49.814;9.918;2023-04-25T11:01:39;4.07;;;3.53;;
25049;SDS011;13046;49.814;9.918;2023-04-25T11:04:25;5.60;;;4.20;;
25049;SDS011;13046;49.814;9.918;2023-04-25T11:09:20;5.65;;;3.80;;
25049;SDS011;13046;49.814;9.918;2023-04-25T11:11:55;4.60;;;4.13;;
25049;SDS011;13046;49.814;9.918;2023-04-25T11:14:22;3.55;;;3.25;;
25049;SDS011;13046;49.814;9.918;2023-04-25T11:16:54;3.88;;;3.50;;
25049;SDS011;13046;49.814;9.918;2023-04-25T11:19:21;7.80;;;3.70;;
25049;SDS011;13046;49.814;9.918;2023-04-25T11:21:48;5.75;;;3.40;;
25049;SDS011;13046;49.814;9.918;2023-04-25T11:24:14;5.07;;;3.53;;
25049;SDS011;13046;49.814;9.918;2023-04-25T11:26:42;8.60;;;4.65;;
25049;SDS011;13046;49.814;9.918;2023-04-25T11:29:08;7.47;;;3.50;;
25049;SDS011;13046;49.814;9.918;2023-04-25T11:31:34;6.25;;;4.35;;
25049;SDS011;13046;49.814;9.918;2023-04-25T11:33:59;5.05;;;4.22;;
25049;SDS011;13046;49.814;9.918;2023-04-25T11:36:25;5.68;;;3.50;;
25049;SDS011;13046;49.814;9.918;2023-04-25T11:38:52;9.15;;;4.60;;
25049;SDS011;13046;49.814;9.918;2023-04-25T11:41:18;5.07;;;3.83;;
25049;SDS011;13046;49.814;9.918;2023-04-25T11:43:45;6.95;;;4.32;;
25049;SDS011;13046;49.814;9.918;2023-04-25T11:46:11;6.28;;;3.45;;
25049;SDS011;13046;49.814;9.918;2023-04-25T11:48:40;5.40;;;3.88;;
25049;SDS011;13046;49.814;9.918;2023-04-25T11:51:06;7.63;;;3.78;;
25049;SDS011;13046;49.814;9.918;2023-04-25T11:53:32;4.97;;;4.38;;
25049;SDS011;13046;49.814;9.918;2023-04-25T11:55:58;3.70;;;3.25;;
25049;SDS011;13046;49.814;9.918;2023-04-25T11:58:25;3.92;;;3.53;;
25049;SDS011;13046;49.814;9.918;2023-04-25T12:00:51;8.10;;;4.13;;
25049;SDS011;13046;49.814;9.918;2023-04-25T12:03:17;5.63;;;4.18;;
25049;SDS011;13046;49.814;9.918;2023-04-25T12:05:44;4.53;;;4.03;;
25049;SDS011;13046;49.814;9.918;2023-04-25T12:08:14;5.03;;;4.22;;
25049;SDS011;13046;49.814;9.918;2023-04-25T12:10:41;5.15;;;3.97;;
25049;SDS011;13046;49.814;9.918;2023-04-25T12:13:20;3.92;;;3.42;;
25049;SDS011;13046;49.814;9.918;2023-04-25T12:15:47;6.47;;;4.18;;
25049;SDS011;13046;49.814;9.918;2023-04-25T12:18:13;9.13;;;3.78;;
25049;SDS011;13046;49.814;9.918;2023-04-25T12:20:39;6.43;;;5.30;;
25049;SDS011;13046;49.814;9.918;2023-04-25T12:23:07;4.82;;;3.67;;
25049;SDS011;13046;49.814;9.918;2023-04-25T12:25:42;5.32;;;4.50;;
25049;SDS011;13046;49.814;9.918;2023-04-25T12:31:04;7.57;;;4.60;;
25049;SDS011;13046;49.814;9.918;2023-04-25T12:33:31;5.35;;;4.30;;
25049;SDS011;13046;49.814;9.918;2023-04-25T12:35:58;6.68;;;4.57;;
25049;SDS011;13046;49.814;9.918;2023-04-25T12:38:28;8.55;;;5.07;;
25049;SDS011;13046;49.814;9.918;2023-04-25T12:40:56;6.60;;;4.85;;
25049;SDS011;13046;49.814;9.918;2023-04-25T12:43:25;7.95;;;5.43;;
25049;SDS011;13046;49.814;9.918;2023-04-25T12:45:51;10.63;;;5.13;;
25049;SDS011;13046;49.814;9.918;2023-04-25T12:48:18;7.53;;;5.00;;
25049;SDS011;13046;49.814;9.918;2023-04-25T12:50:45;7.30;;;6.22;;
25049;SDS011;13046;49.814;9.918;2023-04-25T12:53:14;7.65;;;5.72;;
25049;SDS011;13046;49.814;9.918;2023-04-25T12:55:41;8.63;;;6.47;;
25049;SDS011;13046;49.814;9.918;2023-04-25T12:58:06;8.98;;;5.57;;
25049;SDS011;13046;49.814;9.918;2023-04-25T13:00:32;13.13;;;7.38;;
25049;SDS011;13046;49.814;9.918;2023-04-25T13:02:58;7.72;;;6.68;;
25049;SDS011;13046;49.814;9.918;2023-04-25T13:05:24;8.52;;;7.30;;
25049;SDS011;13046;49.814;9.918;2023-04-25T13:07:50;9.13;;;6.78;;
25049;SDS011;13046;49.814;9.918;2023-04-25T13:10:17;6.57;;;5.25;;
25049;SDS011;13046;49.814;9.918;2023-04-25T13:12:43;7.32;;;6.38;;
25049;SDS011;13046;49.814;9.918;2023-04-25T13:15:09;9.68;;;7.13;;
25049;SDS011;13046;49.814;9.918;2023-04-25T13:17:36;6.53;;;5.93;;
25049;SDS011;13046;49.814;9.918;2023-04-25T13:20:03;9.13;;;6.18;;
25049;SDS011;13046;49.814;9.918;2023-04-25T13:22:33;6.70;;;6.00;;
25049;SDS011;13046;49.814;9.918;2023-04-25T13:25:01;6.97;;;5.53;;
25049;SDS011;13046;49.814;9.918;2023-04-25T13:27:28;8.35;;;5.40;;
25049;SDS011;13046;49.814;9.918;2023-04-25T13:29:53;6.57;;;5.70;;
25049;SDS011;13046;49.814;9.918;2023-04-25T13:32:19;7.32;;;5.65;;
25049;SDS011;13046;49.814;9.918;2023-04-25T13:34:45;8.65;;;6.28;;
25049;SDS011;13046;49.814;9.918;2023-04-25T13:37:10;9.60;;;5.80;;
25049;SDS011;13046;49.814;9.918;2023-04-25T13:39:36;8.82;;;7.80;;
25049;SDS011;13046;49.814;9.918;2023-04-25T13:42:02;9.10;;;7.30;;
25049;SDS011;13046;49.814;9.918;2023-04-25T13:44:28;9.60;;;7.13;;
25049;SDS011;13046;49.814;9.918;2023-04-25T13:46:53;6.03;;;4.90;;
25049;SDS011;13046;49.814;9.918;2023-04-25T13:49:19;10.27;;;5.25;;
25049;SDS011;13046;49.814;9.918;2023-04-25T13:51:45;7.13;;;5.20;;
25049;SDS011;13046;49.814;9.918;2023-04-25T13:54:11;6.38;;;4.72;;
25049;SDS011;13046;49.814;9.918;2023-04-25T13:56:36;7.38;;;5.25;;
25049;SDS011;13046;49.814;9.918;2023-04-25T13:59:02;7.00;;;5.75;;
25049;SDS011;13046;49.814;9.918;2023-04-25T14:01:28;6.15;;;5.13;;
25049;SDS011;13046;49.814;9.918;2023-04-25T14:03:56;4.97;;;4.40;;
25049;SDS011;13046;49.814;9.918;2023-04-25T14:06:22;5.80;;;4.57;;
25049;SDS011;13046;49.814;9.918;2023-04-25T14:08:52;7.88;;;6.38;;
25049;SDS011;13046;49.814;9.918;2023-04-25T14:11:18;6.43;;;4.85;;
25049;SDS011;13046;49.814;9.918;2023-04-25T14:13:44;7.80;;;5.88;;
25049;SDS011;13046;49.814;9.918;2023-04-25T14:16:10;6.68;;;4.88;;
25049;SDS011;13046;49.814;9.918;2023-04-25T14:18:36;4.57;;;4.03;;
25049;SDS011;13046;49.814;9.918;2023-04-25T14:21:02;7.57;;;4.65;;
25049;SDS011;13046;49.814;9.918;2023-04-25T14:23:27;12.90;;;10.63;;
25049;SDS011;13046;49.814;9.918;2023-04-25T14:25:53;6.20;;;4.03;;
25049;SDS011;13046;49.814;9.918;2023-04-25T14:28:19;6.03;;;4.47;;
25049;SDS011;13046;49.814;9.918;2023-04-25T14:30:45;6.15;;;3.83;;
25049;SDS011;13046;49.814;9.918;2023-04-25T14:33:11;6.40;;;3.53;;
25049;SDS011;13046;49.814;9.918;2023-04-25T14:35:36;5.20;;;4.55;;
25049;SDS011;13046;49.814;9.918;2023-04-25T14:38:02;7.90;;;4.43;;
25049;SDS011;13046;49.814;9.918;2023-04-25T14:40:28;7.32;;;3.97;;
25049;SDS011;13046;49.814;9.918;2023-04-25T14:42:54;6.18;;;3.90;;
25049;SDS011;13046;49.814;9.918;2023-04-25T14:45:19;6.78;;;4.15;;
25049;SDS011;13046;49.814;9.918;2023-04-25T14:47:45;7.30;;;3.92;;
25049;SDS011;13046;49.814;9.918;2023-04-25T14:50:11;8.63;;;4.38;;
25049;SDS011;13046;49.814;9.918;2023-04-25T14:52:37;5.68;;;4.10;;
25049;SDS011;13046;49.814;9.918;2023-04-25T14:55:03;4.15;;;3.75;;
25049;SDS011;13046;49.814;9.918;2023-04-25T14:57:32;5.28;;;4.20;;
25049;SDS011;13046;49.814;9.918;2023-04-25T14:59:58;6.07;;;4.85;;
25049;SDS011;13046;49.814;9.918;2023-04-25T15:02:24;10.00;;;4.50;;